sensor_id;sensor_type;location;lat;lon;timestamp;temperature;humidity
32594;DHT22;19018;49.046;9.140;2022-08-19T00:00:12;23.30;48.40
32594;DHT22;19018;49.046;9.140;2022-08-19T00:02:40;23.30;48.40
32594;DHT22;19018;49.046;9.140;2022-08-19T00:05:06;23.30;48.40
32594;DHT22;19018;49.046;9.140;2022-08-19T00:07:31;23.30;48.40
32594;DHT22;19018;49.046;9.140;2022-08-19T00:09:57;23.30;48.50
32594;DHT22;19018;49.046;9.140;2022-08-19T00:12:23;23.30;48.50
32594;DHT22;19018;49.046;9.140;2022-08-19T00:14:48;23.30;48.50
32594;DHT22;19018;49.046;9.140;2022-08-19T00:17:14;23.20;48.40
32594;DHT22;19018;49.046;9.140;2022-08-19T00:19:39;23.30;48.40
32594;DHT22;19018;49.046;9.140;2022-08-19T00:22:06;23.20;48.40
32594;DHT22;19018;49.046;9.140;2022-08-19T00:24:33;23.20;48.40
32594;DHT22;19018;49.046;9.140;2022-08-19T00:27:00;23.20;48.40
32594;DHT22;19018;49.046;9.140;2022-08-19T00:29:27;23.20;48.50
32594;DHT22;19018;49.046;9.140;2022-08-19T00:31:53;23.20;48.50
32594;DHT22;19018;49.046;9.140;2022-08-19T00:34:20;23.20;48.40
32594;DHT22;19018;49.046;9.140;2022-08-19T00:36:46;23.20;48.50
32594;DHT22;19018;49.046;9.140;2022-08-19T00:39:12;23.10;48.50
32594;DHT22;19018;49.046;9.140;2022-08-19T00:41:38;23.20;48.50
32594;DHT22;19018;49.046;9.140;2022-08-19T00:44:17;23.10;48.50
32594;DHT22;19018;49.046;9.140;2022-08-19T00:46:45;23.10;48.50
32594;DHT22;19018;49.046;9.140;2022-08-19T00:49:29;23.10;48.50
32594;DHT22;19018;49.046;9.140;2022-08-19T00:51:59;23.10;48.50
32594;DHT22;19018;49.046;9.140;2022-08-19T00:54:25;23.10;48.50
32594;DHT22;19018;49.046;9.140;2022-08-19T00:56:51;23.10;48.60
32594;DHT22;19018;49.046;9.140;2022-08-19T00:59:17;23.10;48.60
32594;DHT22;19018;49.046;9.140;2022-08-19T01:01:43;23.00;48.50
32594;DHT22;19018;49.046;9.140;2022-08-19T01:04:09;23.10;48.60
32594;DHT22;19018;49.046;9.140;2022-08-19T01:06:35;23.00;48.50
32594;DHT22;19018;49.046;9.140;2022-08-19T01:09:02;23.00;48.50
32594;DHT22;19018;49.046;9.140;2022-08-19T01:11:28;23.00;48.50
32594;DHT22;19018;49.046;9.140;2022-08-19T01:13:55;23.10;48.50
32594;DHT22;19018;49.046;9.140;2022-08-19T01:16:21;23.10;48.50
32594;DHT22;19018;49.046;9.140;2022-08-19T01:18:47;23.00;48.50
32594;DHT22;19018;49.046;9.140;2022-08-19T01:23:41;23.00;48.50
32594;DHT22;19018;49.046;9.140;2022-08-19T01:26:12;23.00;48.50
32594;DHT22;19018;49.046;9.140;2022-08-19T01:28:38;23.00;48.50
32594;DHT22;19018;49.046;9.140;2022-08-19T01:31:04;23.00;48.50
32594;DHT22;19018;49.046;9.140;2022-08-19T01:33:29;23.00;48.60
32594;DHT22;19018;49.046;9.140;2022-08-19T01:36:03;23.00;48.60
32594;DHT22;19018;49.046;9.140;2022-08-19T01:38:30;22.90;48.60
32594;DHT22;19018;49.046;9.140;2022-08-19T01:40:56;23.00;48.60
32594;DHT22;19018;49.046;9.140;2022-08-19T01:45:48;23.00;48.60
32594;DHT22;19018;49.046;9.140;2022-08-19T01:50:40;23.00;48.60
32594;DHT22;19018;49.046;9.140;2022-08-19T01:53:07;22.90;48.60
32594;DHT22;19018;49.046;9.140;2022-08-19T01:58:00;22.90;48.60
32594;DHT22;19018;49.046;9.140;2022-08-19T02:00:28;23.00;48.60
32594;DHT22;19018;49.046;9.140;2022-08-19T02:02:55;22.90;48.60
32594;DHT22;19018;49.046;9.140;2022-08-19T02:05:20;22.70;48.50
32594;DHT22;19018;49.046;9.140;2022-08-19T02:07:46;22.90;48.70
32594;DHT22;19018;49.046;9.140;2022-08-19T02:10:14;22.90;48.70
32594;DHT22;19018;49.046;9.140;2022-08-19T02:12:41;22.90;48.70
32594;DHT22;19018;49.046;9.140;2022-08-19T02:17:33;22.90;48.70
32594;DHT22;19018;49.046;9.140;2022-08-19T02:19:58;22.90;48.70
32594;DHT22;19018;49.046;9.140;2022-08-19T02:22:24;22.90;48.70
32594;DHT22;19018;49.046;9.140;2022-08-19T02:24:53;22.90;48.70
32594;DHT22;19018;49.046;9.140;2022-08-19T02:27:19;22.90;48.70
32594;DHT22;19018;49.046;9.140;2022-08-19T02:29:49;22.90;48.70
32594;DHT22;19018;49.046;9.140;2022-08-19T02:32:15;22.80;48.70
32594;DHT22;19018;49.046;9.140;2022-08-19T02:34:41;22.80;48.70
32594;DHT22;19018;49.046;9.140;2022-08-19T02:37:06;22.90;48.70
32594;DHT22;19018;49.046;9.140;2022-08-19T02:39:52;22.80;48.70
32594;DHT22;19018;49.046;9.140;2022-08-19T02:42:18;22.80;48.70
32594;DHT22;19018;49.046;9.140;2022-08-19T02:44:43;22.80;48.80
32594;DHT22;19018;49.046;9.140;2022-08-19T02:47:09;22.80;48.80
32594;DHT22;19018;49.046;9.140;2022-08-19T02:49:35;22.80;48.80
32594;DHT22;19018;49.046;9.140;2022-08-19T02:52:01;22.80;48.80
32594;DHT22;19018;49.046;9.140;2022-08-19T02:54:26;22.80;48.80
32594;DHT22;19018;49.046;9.140;2022-08-19T02:56:53;22.80;48.80
32594;DHT22;19018;49.046;9.140;2022-08-19T02:59:18;22.80;48.80
32594;DHT22;19018;49.046;9.140;2022-08-19T03:01:44;22.80;48.80
32594;DHT22;19018;49.046;9.140;2022-08-19T03:04:11;22.70;48.80
32594;DHT22;19018;49.046;9.140;2022-08-19T03:06:38;22.70;48.80
32594;DHT22;19018;49.046;9.140;2022-08-19T03:09:04;22.70;48.80
32594;DHT22;19018;49.046;9.140;2022-08-19T03:11:30;22.80;48.90
32594;DHT22;19018;49.046;9.140;2022-08-19T03:13:57;22.70;48.80
32594;DHT22;19018;49.046;9.140;2022-08-19T03:16:24;22.70;48.90
32594;DHT22;19018;49.046;9.140;2022-08-19T03:18:50;22.70;48.90
32594;DHT22;19018;49.046;9.140;2022-08-19T03:21:16;22.70;48.90
32594;DHT22;19018;49.046;9.140;2022-08-19T03:23:42;22.70;48.90
32594;DHT22;19018;49.046;9.140;2022-08-19T03:26:08;22.70;48.90
32594;DHT22;19018;49.046;9.140;2022-08-19T03:28:33;22.70;48.90
32594;DHT22;19018;49.046;9.140;2022-08-19T03:31:07;22.60;48.80
32594;DHT22;19018;49.046;9.140;2022-08-19T03:33:33;22.70;48.90
32594;DHT22;19018;49.046;9.140;2022-08-19T03:36:09;22.70;48.90
32594;DHT22;19018;49.046;9.140;2022-08-19T03:38:42;22.60;48.90
32594;DHT22;19018;49.046;9.140;2022-08-19T03:41:10;22.60;48.90
32594;DHT22;19018;49.046;9.140;2022-08-19T03:43:36;22.60;48.90
32594;DHT22;19018;49.046;9.140;2022-08-19T03:46:06;22.60;48.90
32594;DHT22;19018;49.046;9.140;2022-08-19T03:48:32;22.60;48.90
32594;DHT22;19018;49.046;9.140;2022-08-19T03:50:58;22.60;48.90
32594;DHT22;19018;49.046;9.140;2022-08-19T03:53:25;22.60;49.00
32594;DHT22;19018;49.046;9.140;2022-08-19T03:55:51;22.60;49.00
32594;DHT22;19018;49.046;9.140;2022-08-19T03:58:17;22.60;49.00
32594;DHT22;19018;49.046;9.140;2022-08-19T04:00:42;22.50;49.00
32594;DHT22;19018;49.046;9.140;2022-08-19T04:03:08;22.50;48.90
32594;DHT22;19018;49.046;9.140;2022-08-19T04:05:34;22.50;48.90
32594;DHT22;19018;49.046;9.140;2022-08-19T04:07:59;22.50;49.00
32594;DHT22;19018;49.046;9.140;2022-08-19T04:10:26;22.50;49.00
32594;DHT22;19018;49.046;9.140;2022-08-19T04:12:53;22.50;49.00
32594;DHT22;19018;49.046;9.140;2022-08-19T04:15:19;22.50;49.00
32594;DHT22;19018;49.046;9.140;2022-08-19T04:17:46;22.50;49.00
32594;DHT22;19018;49.046;9.140;2022-08-19T04:20:11;22.40;49.00
32594;DHT22;19018;49.046;9.140;2022-08-19T04:22:37;22.40;49.00
32594;DHT22;19018;49.046;9.140;2022-08-19T04:25:02;22.40;49.00
32594;DHT22;19018;49.046;9.140;2022-08-19T04:27:28;22.40;49.00
32594;DHT22;19018;49.046;9.140;2022-08-19T04:29:54;22.40;49.00
32594;DHT22;19018;49.046;9.140;2022-08-19T04:32:20;22.40;49.00
32594;DHT22;19018;49.046;9.140;2022-08-19T04:34:46;22.40;49.00
32594;DHT22;19018;49.046;9.140;2022-08-19T04:39:38;22.30;49.00
32594;DHT22;19018;49.046;9.140;2022-08-19T04:42:22;22.30;49.00
32594;DHT22;19018;49.046;9.140;2022-08-19T04:47:32;22.30;49.00
32594;DHT22;19018;49.046;9.140;2022-08-19T04:49:58;22.30;49.00
32594;DHT22;19018;49.046;9.140;2022-08-19T04:52:24;22.30;49.00
32594;DHT22;19018;49.046;9.140;2022-08-19T04:54:49;22.30;49.00
32594;DHT22;19018;49.046;9.140;2022-08-19T04:57:15;22.30;49.10
32594;DHT22;19018;49.046;9.140;2022-08-19T04:59:40;22.20;49.00
32594;DHT22;19018;49.046;9.140;2022-08-19T05:02:07;22.20;49.00
32594;DHT22;19018;49.046;9.140;2022-08-19T05:04:33;22.20;49.10
32594;DHT22;19018;49.046;9.140;2022-08-19T05:06:59;22.20;49.10
32594;DHT22;19018;49.046;9.140;2022-08-19T05:09:25;22.20;49.00
32594;DHT22;19018;49.046;9.140;2022-08-19T05:16:47;22.20;49.10
32594;DHT22;19018;49.046;9.140;2022-08-19T05:19:13;22.20;49.10
32594;DHT22;19018;49.046;9.140;2022-08-19T05:21:57;22.10;49.00
32594;DHT22;19018;49.046;9.140;2022-08-19T05:24:41;22.10;49.00
32594;DHT22;19018;49.046;9.140;2022-08-19T05:27:07;22.10;49.10
32594;DHT22;19018;49.046;9.140;2022-08-19T05:29:33;22.10;49.10
32594;DHT22;19018;49.046;9.140;2022-08-19T05:32:00;22.10;49.10
32594;DHT22;19018;49.046;9.140;2022-08-19T05:34:26;22.10;49.10
32594;DHT22;19018;49.046;9.140;2022-08-19T05:36:55;22.10;49.10
32594;DHT22;19018;49.046;9.140;2022-08-19T05:39:22;22.10;49.10
32594;DHT22;19018;49.046;9.140;2022-08-19T05:41:50;22.10;49.10
32594;DHT22;19018;49.046;9.140;2022-08-19T05:44:16;22.10;49.10
32594;DHT22;19018;49.046;9.140;2022-08-19T05:46:43;22.10;49.10
32594;DHT22;19018;49.046;9.140;2022-08-19T05:49:08;22.10;49.10
32594;DHT22;19018;49.046;9.140;2022-08-19T05:51:35;22.10;49.10
32594;DHT22;19018;49.046;9.140;2022-08-19T05:54:03;22.10;49.20
32594;DHT22;19018;49.046;9.140;2022-08-19T05:56:29;22.10;49.10
32594;DHT22;19018;49.046;9.140;2022-08-19T05:58:56;22.10;49.20
32594;DHT22;19018;49.046;9.140;2022-08-19T06:01:21;22.10;49.20
32594;DHT22;19018;49.046;9.140;2022-08-19T06:03:47;22.10;49.20
32594;DHT22;19018;49.046;9.140;2022-08-19T06:06:13;22.10;49.20
32594;DHT22;19018;49.046;9.140;2022-08-19T06:08:40;22.10;49.20
32594;DHT22;19018;49.046;9.140;2022-08-19T06:11:13;22.10;49.20
32594;DHT22;19018;49.046;9.140;2022-08-19T06:13:39;22.10;49.20
32594;DHT22;19018;49.046;9.140;2022-08-19T06:16:05;22.10;49.20
32594;DHT22;19018;49.046;9.140;2022-08-19T06:18:30;22.10;49.20
32594;DHT22;19018;49.046;9.140;2022-08-19T06:20:56;22.10;49.20
32594;DHT22;19018;49.046;9.140;2022-08-19T06:23:22;22.10;49.20
32594;DHT22;19018;49.046;9.140;2022-08-19T06:25:47;22.10;49.20
32594;DHT22;19018;49.046;9.140;2022-08-19T06:28:13;22.10;49.20
32594;DHT22;19018;49.046;9.140;2022-08-19T06:30:38;22.10;49.20
32594;DHT22;19018;49.046;9.140;2022-08-19T06:33:04;22.10;49.30
32594;DHT22;19018;49.046;9.140;2022-08-19T06:35:29;22.10;49.30
32594;DHT22;19018;49.046;9.140;2022-08-19T06:37:55;22.10;49.30
32594;DHT22;19018;49.046;9.140;2022-08-19T06:40:21;22.20;49.30
32594;DHT22;19018;49.046;9.140;2022-08-19T06:42:46;22.20;49.30
32594;DHT22;19018;49.046;9.140;2022-08-19T06:45:14;22.20;49.30
32594;DHT22;19018;49.046;9.140;2022-08-19T06:47:40;22.20;49.40
32594;DHT22;19018;49.046;9.140;2022-08-19T06:50:07;22.20;49.30
32594;DHT22;19018;49.046;9.140;2022-08-19T06:52:33;22.20;49.30
32594;DHT22;19018;49.046;9.140;2022-08-19T06:54:59;22.20;49.70
32594;DHT22;19018;49.046;9.140;2022-08-19T06:57:25;22.20;49.40
32594;DHT22;19018;49.046;9.140;2022-08-19T06:59:51;22.20;49.40
32594;DHT22;19018;49.046;9.140;2022-08-19T07:02:16;22.20;49.40
32594;DHT22;19018;49.046;9.140;2022-08-19T07:04:42;22.20;49.40
32594;DHT22;19018;49.046;9.140;2022-08-19T07:07:09;22.20;49.40
32594;DHT22;19018;49.046;9.140;2022-08-19T07:09:35;22.20;49.40
32594;DHT22;19018;49.046;9.140;2022-08-19T07:12:04;22.20;49.40
32594;DHT22;19018;49.046;9.140;2022-08-19T07:14:30;22.20;49.40
32594;DHT22;19018;49.046;9.140;2022-08-19T07:16:56;22.30;49.50
32594;DHT22;19018;49.046;9.140;2022-08-19T07:21:48;22.30;49.40
32594;DHT22;19018;49.046;9.140;2022-08-19T07:24:15;22.30;49.50
32594;DHT22;19018;49.046;9.140;2022-08-19T07:26:41;22.30;49.50
32594;DHT22;19018;49.046;9.140;2022-08-19T07:29:07;22.30;49.50
32594;DHT22;19018;49.046;9.140;2022-08-19T07:31:33;22.40;49.50
32594;DHT22;19018;49.046;9.140;2022-08-19T07:34:03;22.40;49.50
32594;DHT22;19018;49.046;9.140;2022-08-19T07:36:32;22.40;49.60
32594;DHT22;19018;49.046;9.140;2022-08-19T07:38:59;22.40;50.00
32594;DHT22;19018;49.046;9.140;2022-08-19T07:41:25;22.50;51.20
32594;DHT22;19018;49.046;9.140;2022-08-19T07:43:51;22.50;50.00
32594;DHT22;19018;49.046;9.140;2022-08-19T07:46:18;22.50;49.90
32594;DHT22;19018;49.046;9.140;2022-08-19T07:48:45;22.60;49.90
32594;DHT22;19018;49.046;9.140;2022-08-19T07:51:12;22.60;49.90
32594;DHT22;19018;49.046;9.140;2022-08-19T07:53:38;22.60;50.00
32594;DHT22;19018;49.046;9.140;2022-08-19T07:56:04;22.60;50.00
32594;DHT22;19018;49.046;9.140;2022-08-19T07:58:31;22.70;50.00
32594;DHT22;19018;49.046;9.140;2022-08-19T08:00:57;22.70;50.00
32594;DHT22;19018;49.046;9.140;2022-08-19T08:03:23;22.70;50.00
32594;DHT22;19018;49.046;9.140;2022-08-19T08:06:09;22.70;50.00
32594;DHT22;19018;49.046;9.140;2022-08-19T08:08:53;22.80;50.00
32594;DHT22;19018;49.046;9.140;2022-08-19T08:11:47;22.80;50.00
32594;DHT22;19018;49.046;9.140;2022-08-19T08:14:20;22.80;50.20
32594;DHT22;19018;49.046;9.140;2022-08-19T08:16:47;22.80;50.10
32594;DHT22;19018;49.046;9.140;2022-08-19T08:19:15;22.90;50.10
32594;DHT22;19018;49.046;9.140;2022-08-19T08:21:41;22.90;50.10
32594;DHT22;19018;49.046;9.140;2022-08-19T08:24:06;22.90;50.10
32594;DHT22;19018;49.046;9.140;2022-08-19T08:26:32;22.90;50.10
32594;DHT22;19018;49.046;9.140;2022-08-19T08:28:57;22.90;50.10
32594;DHT22;19018;49.046;9.140;2022-08-19T08:31:23;23.00;50.10
32594;DHT22;19018;49.046;9.140;2022-08-19T08:33:49;23.00;50.20
32594;DHT22;19018;49.046;9.140;2022-08-19T08:36:15;23.00;50.20
32594;DHT22;19018;49.046;9.140;2022-08-19T08:38:41;23.00;50.10
32594;DHT22;19018;49.046;9.140;2022-08-19T08:44:00;23.00;50.00
32594;DHT22;19018;49.046;9.140;2022-08-19T08:46:46;23.00;50.10
32594;DHT22;19018;49.046;9.140;2022-08-19T08:52:02;23.10;50.40
32594;DHT22;19018;49.046;9.140;2022-08-19T08:54:30;23.10;51.00
32594;DHT22;19018;49.046;9.140;2022-08-19T08:56:57;23.10;50.20
32594;DHT22;19018;49.046;9.140;2022-08-19T09:01:48;23.10;50.20
32594;DHT22;19018;49.046;9.140;2022-08-19T09:04:14;23.20;50.30
32594;DHT22;19018;49.046;9.140;2022-08-19T09:06:51;23.20;50.40
32594;DHT22;19018;49.046;9.140;2022-08-19T09:09:21;23.20;50.80
32594;DHT22;19018;49.046;9.140;2022-08-19T09:17:03;23.30;50.70
32594;DHT22;19018;49.046;9.140;2022-08-19T09:19:34;23.30;51.00
32594;DHT22;19018;49.046;9.140;2022-08-19T09:21:59;23.40;50.80
32594;DHT22;19018;49.046;9.140;2022-08-19T09:24:26;23.40;50.70
32594;DHT22;19018;49.046;9.140;2022-08-19T09:26:51;23.40;51.10
32594;DHT22;19018;49.046;9.140;2022-08-19T09:29:17;23.50;51.00
32594;DHT22;19018;49.046;9.140;2022-08-19T09:31:43;23.50;50.90
32594;DHT22;19018;49.046;9.140;2022-08-19T09:34:08;23.60;51.90
32594;DHT22;19018;49.046;9.140;2022-08-19T09:36:34;23.60;51.40
32594;DHT22;19018;49.046;9.140;2022-08-19T09:39:04;23.60;51.30
32594;DHT22;19018;49.046;9.140;2022-08-19T09:41:31;23.70;51.30
32594;DHT22;19018;49.046;9.140;2022-08-19T09:43:58;23.70;51.20
32594;DHT22;19018;49.046;9.140;2022-08-19T09:46:25;23.70;51.70
32594;DHT22;19018;49.046;9.140;2022-08-19T09:48:51;23.80;51.30
32594;DHT22;19018;49.046;9.140;2022-08-19T09:51:21;23.90;51.30
32594;DHT22;19018;49.046;9.140;2022-08-19T09:53:47;23.90;51.50
32594;DHT22;19018;49.046;9.140;2022-08-19T09:56:17;23.90;51.30
32594;DHT22;19018;49.046;9.140;2022-08-19T09:58:43;23.90;51.20
32594;DHT22;19018;49.046;9.140;2022-08-19T10:01:14;24.00;51.10
32594;DHT22;19018;49.046;9.140;2022-08-19T10:03:40;24.00;51.10
32594;DHT22;19018;49.046;9.140;2022-08-19T10:06:06;24.10;51.20
32594;DHT22;19018;49.046;9.140;2022-08-19T10:08:33;24.10;51.20
32594;DHT22;19018;49.046;9.140;2022-08-19T10:10:59;24.10;51.60
32594;DHT22;19018;49.046;9.140;2022-08-19T10:13:26;24.10;51.70
32594;DHT22;19018;49.046;9.140;2022-08-19T10:15:52;24.20;52.80
32594;DHT22;19018;49.046;9.140;2022-08-19T10:18:19;24.20;52.30
32594;DHT22;19018;49.046;9.140;2022-08-19T10:20:46;24.20;52.70
32594;DHT22;19018;49.046;9.140;2022-08-19T10:23:12;24.20;52.40
32594;DHT22;19018;49.046;9.140;2022-08-19T10:25:38;24.30;52.00
32594;DHT22;19018;49.046;9.140;2022-08-19T10:28:04;24.40;52.40
32594;DHT22;19018;49.046;9.140;2022-08-19T10:30:31;24.40;52.50
32594;DHT22;19018;49.046;9.140;2022-08-19T10:32:56;24.40;52.00
32594;DHT22;19018;49.046;9.140;2022-08-19T10:37:49;24.50;52.60
32594;DHT22;19018;49.046;9.140;2022-08-19T10:40:14;24.50;52.30
32594;DHT22;19018;49.046;9.140;2022-08-19T10:42:40;24.50;52.10
32594;DHT22;19018;49.046;9.140;2022-08-19T10:45:05;24.60;52.10
32594;DHT22;19018;49.046;9.140;2022-08-19T10:47:32;24.70;52.80
32594;DHT22;19018;49.046;9.140;2022-08-19T10:49:58;24.70;52.90
32594;DHT22;19018;49.046;9.140;2022-08-19T10:52:43;24.70;52.40
32594;DHT22;19018;49.046;9.140;2022-08-19T10:55:09;24.80;52.60
32594;DHT22;19018;49.046;9.140;2022-08-19T10:57:53;24.90;53.70
32594;DHT22;19018;49.046;9.140;2022-08-19T11:00:20;24.90;52.60
32594;DHT22;19018;49.046;9.140;2022-08-19T11:02:45;25.00;52.40
32594;DHT22;19018;49.046;9.140;2022-08-19T11:05:11;25.00;52.50
32594;DHT22;19018;49.046;9.140;2022-08-19T11:07:38;25.10;52.30
32594;DHT22;19018;49.046;9.140;2022-08-19T11:10:04;25.10;52.40
32594;DHT22;19018;49.046;9.140;2022-08-19T11:12:29;25.20;52.50
32594;DHT22;19018;49.046;9.140;2022-08-19T11:14:55;25.30;52.50
32594;DHT22;19018;49.046;9.140;2022-08-19T11:17:21;25.30;52.30
32594;DHT22;19018;49.046;9.140;2022-08-19T11:19:49;25.30;52.20
32594;DHT22;19018;49.046;9.140;2022-08-19T11:22:14;25.40;52.10
32594;DHT22;19018;49.046;9.140;2022-08-19T11:24:40;25.40;52.10
32594;DHT22;19018;49.046;9.140;2022-08-19T11:27:07;25.50;52.10
32594;DHT22;19018;49.046;9.140;2022-08-19T11:29:34;25.50;52.00
32594;DHT22;19018;49.046;9.140;2022-08-19T11:32:03;25.50;51.90
32594;DHT22;19018;49.046;9.140;2022-08-19T11:34:29;25.50;52.00
32594;DHT22;19018;49.046;9.140;2022-08-19T11:36:55;25.60;51.90
32594;DHT22;19018;49.046;9.140;2022-08-19T11:39:24;25.60;51.90
32594;DHT22;19018;49.046;9.140;2022-08-19T11:41:50;25.60;51.90
32594;DHT22;19018;49.046;9.140;2022-08-19T11:44:15;25.60;51.90
32594;DHT22;19018;49.046;9.140;2022-08-19T11:46:42;25.70;51.90
32594;DHT22;19018;49.046;9.140;2022-08-19T11:49:12;25.70;52.00
32594;DHT22;19018;49.046;9.140;2022-08-19T11:51:38;25.70;51.90
32594;DHT22;19018;49.046;9.140;2022-08-19T11:54:04;25.70;51.90
32594;DHT22;19018;49.046;9.140;2022-08-19T11:56:30;25.80;51.90
32594;DHT22;19018;49.046;9.140;2022-08-19T11:58:56;25.80;51.90
32594;DHT22;19018;49.046;9.140;2022-08-19T12:01:23;25.80;51.90
32594;DHT22;19018;49.046;9.140;2022-08-19T12:03:50;25.90;51.90
32594;DHT22;19018;49.046;9.140;2022-08-19T12:06:17;25.90;51.80
32594;DHT22;19018;49.046;9.140;2022-08-19T12:08:45;26.00;51.90
32594;DHT22;19018;49.046;9.140;2022-08-19T12:11:11;26.00;51.80
32594;DHT22;19018;49.046;9.140;2022-08-19T12:13:37;26.00;51.80
32594;DHT22;19018;49.046;9.140;2022-08-19T12:16:10;26.00;51.70
32594;DHT22;19018;49.046;9.140;2022-08-19T12:18:38;26.10;51.80
32594;DHT22;19018;49.046;9.140;2022-08-19T12:21:04;26.00;51.70
32594;DHT22;19018;49.046;9.140;2022-08-19T12:23:29;26.10;51.80
32594;DHT22;19018;49.046;9.140;2022-08-19T12:25:55;26.10;51.70
32594;DHT22;19018;49.046;9.140;2022-08-19T12:28:22;26.10;51.70
32594;DHT22;19018;49.046;9.140;2022-08-19T12:30:48;26.10;51.60
32594;DHT22;19018;49.046;9.140;2022-08-19T12:33:16;26.10;51.60
32594;DHT22;19018;49.046;9.140;2022-08-19T12:35:43;26.20;51.60
32594;DHT22;19018;49.046;9.140;2022-08-19T12:38:09;26.10;51.50
32594;DHT22;19018;49.046;9.140;2022-08-19T12:40:35;26.10;51.40
32594;DHT22;19018;49.046;9.140;2022-08-19T12:43:01;26.10;51.40
32594;DHT22;19018;49.046;9.140;2022-08-19T12:45:27;26.10;51.40
32594;DHT22;19018;49.046;9.140;2022-08-19T12:47:52;26.10;51.30
32594;DHT22;19018;49.046;9.140;2022-08-19T12:50:18;26.10;51.30
32594;DHT22;19018;49.046;9.140;2022-08-19T12:52:44;26.10;51.30
32594;DHT22;19018;49.046;9.140;2022-08-19T12:55:10;26.10;51.30
32594;DHT22;19018;49.046;9.140;2022-08-19T12:57:36;26.10;51.30
32594;DHT22;19018;49.046;9.140;2022-08-19T13:00:07;26.10;51.30
32594;DHT22;19018;49.046;9.140;2022-08-19T13:02:37;26.10;51.20
32594;DHT22;19018;49.046;9.140;2022-08-19T13:05:03;26.10;51.20
32594;DHT22;19018;49.046;9.140;2022-08-19T13:07:31;26.10;51.20
32594;DHT22;19018;49.046;9.140;2022-08-19T13:09:56;26.10;51.20
32594;DHT22;19018;49.046;9.140;2022-08-19T13:12:22;26.10;51.20
32594;DHT22;19018;49.046;9.140;2022-08-19T13:14:49;26.10;51.20
32594;DHT22;19018;49.046;9.140;2022-08-19T13:17:16;26.10;51.10
32594;DHT22;19018;49.046;9.140;2022-08-19T13:19:41;26.10;51.10
32594;DHT22;19018;49.046;9.140;2022-08-19T13:22:07;26.00;51.00
32594;DHT22;19018;49.046;9.140;2022-08-19T13:24:33;26.10;51.10
32594;DHT22;19018;49.046;9.140;2022-08-19T13:27:01;26.00;51.00
32594;DHT22;19018;49.046;9.140;2022-08-19T13:29:26;26.00;51.00
32594;DHT22;19018;49.046;9.140;2022-08-19T13:32:10;26.00;51.00
32594;DHT22;19018;49.046;9.140;2022-08-19T13:34:55;26.00;51.00
32594;DHT22;19018;49.046;9.140;2022-08-19T13:37:21;26.00;51.00
32594;DHT22;19018;49.046;9.140;2022-08-19T13:40:10;26.00;51.00
32594;DHT22;19018;49.046;9.140;2022-08-19T13:42:41;26.00;51.00
32594;DHT22;19018;49.046;9.140;2022-08-19T13:45:07;26.00;51.00
32594;DHT22;19018;49.046;9.140;2022-08-19T13:47:33;26.00;51.00
32594;DHT22;19018;49.046;9.140;2022-08-19T13:50:08;26.00;51.00
32594;DHT22;19018;49.046;9.140;2022-08-19T13:52:34;26.00;51.00
32594;DHT22;19018;49.046;9.140;2022-08-19T13:54:59;26.00;51.00
32594;DHT22;19018;49.046;9.140;2022-08-19T13:57:25;26.00;51.00
32594;DHT22;19018;49.046;9.140;2022-08-19T14:02:16;26.10;51.10
32594;DHT22;19018;49.046;9.140;2022-08-19T14:04:42;26.10;51.10
32594;DHT22;19018;49.046;9.140;2022-08-19T14:07:08;26.10;51.00
32594;DHT22;19018;49.046;9.140;2022-08-19T14:09:34;26.10;51.00
32594;DHT22;19018;49.046;9.140;2022-08-19T14:12:01;26.10;51.00
32594;DHT22;19018;49.046;9.140;2022-08-19T14:14:27;26.10;51.00
32594;DHT22;19018;49.046;9.140;2022-08-19T14:16:54;26.10;51.00
32594;DHT22;19018;49.046;9.140;2022-08-19T14:19:20;26.00;50.90
32594;DHT22;19018;49.046;9.140;2022-08-19T14:21:46;26.10;51.00
32594;DHT22;19018;49.046;9.140;2022-08-19T14:24:11;26.10;51.00
32594;DHT22;19018;49.046;9.140;2022-08-19T14:26:37;26.10;51.00
32594;DHT22;19018;49.046;9.140;2022-08-19T14:29:03;26.00;50.90
32594;DHT22;19018;49.046;9.140;2022-08-19T14:31:29;26.00;50.90
32594;DHT22;19018;49.046;9.140;2022-08-19T14:33:54;26.00;50.90
32594;DHT22;19018;49.046;9.140;2022-08-19T14:36:20;26.10;51.00
32594;DHT22;19018;49.046;9.140;2022-08-19T14:38:47;26.10;51.00
32594;DHT22;19018;49.046;9.140;2022-08-19T14:41:15;26.10;51.00
32594;DHT22;19018;49.046;9.140;2022-08-19T14:43:46;26.10;51.10
32594;DHT22;19018;49.046;9.140;2022-08-19T14:46:17;26.10;51.00
32594;DHT22;19018;49.046;9.140;2022-08-19T14:48:45;26.10;51.00
32594;DHT22;19018;49.046;9.140;2022-08-19T14:51:10;26.10;51.10
32594;DHT22;19018;49.046;9.140;2022-08-19T14:53:36;26.10;51.10
32594;DHT22;19018;49.046;9.140;2022-08-19T14:56:06;26.20;51.10
32594;DHT22;19018;49.046;9.140;2022-08-19T14:58:32;26.20;51.00
32594;DHT22;19018;49.046;9.140;2022-08-19T15:00:58;26.20;51.00
32594;DHT22;19018;49.046;9.140;2022-08-19T15:03:24;26.30;51.10
32594;DHT22;19018;49.046;9.140;2022-08-19T15:05:51;26.30;51.10
32594;DHT22;19018;49.046;9.140;2022-08-19T15:08:16;26.20;51.00
32594;DHT22;19018;49.046;9.140;2022-08-19T15:10:42;26.30;51.10
32594;DHT22;19018;49.046;9.140;2022-08-19T15:13:07;26.30;51.00
32594;DHT22;19018;49.046;9.140;2022-08-19T15:15:34;26.30;51.00
32594;DHT22;19018;49.046;9.140;2022-08-19T15:18:00;26.30;51.30
32594;DHT22;19018;49.046;9.140;2022-08-19T15:20:27;26.30;51.20
32594;DHT22;19018;49.046;9.140;2022-08-19T15:25:19;26.30;52.40
32594;DHT22;19018;49.046;9.140;2022-08-19T15:27:45;26.40;51.90
32594;DHT22;19018;49.046;9.140;2022-08-19T15:30:11;26.40;51.50
32594;DHT22;19018;49.046;9.140;2022-08-19T15:32:37;26.40;51.70
32594;DHT22;19018;49.046;9.140;2022-08-19T15:37:30;26.50;52.40
32594;DHT22;19018;49.046;9.140;2022-08-19T15:39:55;26.50;52.90
32594;DHT22;19018;49.046;9.140;2022-08-19T15:42:21;26.50;53.10
32594;DHT22;19018;49.046;9.140;2022-08-19T15:44:47;26.60;53.00
32594;DHT22;19018;49.046;9.140;2022-08-19T15:47:13;26.60;52.70
32594;DHT22;19018;49.046;9.140;2022-08-19T15:49:38;26.60;52.80
32594;DHT22;19018;49.046;9.140;2022-08-19T15:52:04;26.60;53.20
32594;DHT22;19018;49.046;9.140;2022-08-19T15:54:31;26.60;52.60
32594;DHT22;19018;49.046;9.140;2022-08-19T15:56:57;26.60;52.20
32594;DHT22;19018;49.046;9.140;2022-08-19T15:59:41;26.70;52.20
32594;DHT22;19018;49.046;9.140;2022-08-19T16:02:26;26.70;52.20
32594;DHT22;19018;49.046;9.140;2022-08-19T16:05:14;26.70;52.20
32594;DHT22;19018;49.046;9.140;2022-08-19T16:07:58;26.80;52.60
32594;DHT22;19018;49.046;9.140;2022-08-19T16:10:24;26.80;52.40
32594;DHT22;19018;49.046;9.140;2022-08-19T16:12:50;26.80;52.90
32594;DHT22;19018;49.046;9.140;2022-08-19T16:15:16;26.80;52.90
32594;DHT22;19018;49.046;9.140;2022-08-19T16:17:41;26.80;52.60